sensor_id;sensor_type;location;lat;lon;timestamp;pressure;altitude;pressure_sealevel;temperature;humidity
7180;BME280;3631;42.152;24.756;2022-11-06T00:01:32;99074.47;;;12.15;100.00
7180;BME280;3631;42.152;24.756;2022-11-06T00:03:59;99065.44;;;12.24;100.00
7180;BME280;3631;42.152;24.756;2022-11-06T00:06:26;99065.38;;;12.25;100.00
7180;BME280;3631;42.152;24.756;2022-11-06T00:09:12;99077.47;;;12.26;100.00
7180;BME280;3631;42.152;24.756;2022-11-06T00:11:40;99064.84;;;12.17;100.00
7180;BME280;3631;42.152;24.756;2022-11-06T00:14:08;99068.09;;;12.22;100.00
7180;BME280;3631;42.152;24.756;2022-11-06T00:16:36;99061.72;;;12.29;100.00
7180;BME280;3631;42.152;24.756;2022-11-06T00:19:04;99059.25;;;12.26;100.00
7180;BME280;3631;42.152;24.756;2022-11-06T00:21:31;99062.47;;;12.31;100.00
7180;BME280;3631;42.152;24.756;2022-11-06T00:24:00;99058.13;;;12.32;100.00
7180;BME280;3631;42.152;24.756;2022-11-06T00:26:29;99046.25;;;12.26;100.00
7180;BME280;3631;42.152;24.756;2022-11-06T00:28:57;99053.25;;;12.24;100.00
7180;BME280;3631;42.152;24.756;2022-11-06T00:31:25;99048.13;;;12.23;100.00
7180;BME280;3631;42.152;24.756;2022-11-06T00:33:54;99039.09;;;12.11;100.00
7180;BME280;3631;42.152;24.756;2022-11-06T00:36:22;99047.94;;;12.27;100.00
7180;BME280;3631;42.152;24.756;2022-11-06T00:38:51;99038.69;;;12.20;100.00
7180;BME280;3631;42.152;24.756;2022-11-06T00:41:18;99049.56;;;12.30;100.00
7180;BME280;3631;42.152;24.756;2022-11-06T00:43:53;99057.63;;;12.24;100.00
7180;BME280;3631;42.152;24.756;2022-11-06T00:46:20;99049.25;;;12.17;100.00
7180;BME280;3631;42.152;24.756;2022-11-06T00:48:47;99054.81;;;12.08;100.00
7180;BME280;3631;42.152;24.756;2022-11-06T00:51:16;99045.06;;;11.93;100.00
7180;BME280;3631;42.152;24.756;2022-11-06T00:53:43;99070.19;;;12.14;100.00
7180;BME280;3631;42.152;24.756;2022-11-06T00:56:12;99057.63;;;12.04;100.00
7180;BME280;3631;42.152;24.756;2022-11-06T00:58:40;99055.94;;;12.03;100.00
7180;BME280;3631;42.152;24.756;2022-11-06T01:01:10;99058.72;;;11.98;100.00
7180;BME280;3631;42.152;24.756;2022-11-06T01:03:39;99053.28;;;12.04;100.00
7180;BME280;3631;42.152;24.756;2022-11-06T01:06:07;99059.38;;;12.03;100.00
7180;BME280;3631;42.152;24.756;2022-11-06T01:08:34;99060.16;;;12.05;100.00
7180;BME280;3631;42.152;24.756;2022-11-06T01:11:06;99060.94;;;12.07;100.00
7180;BME280;3631;42.152;24.756;2022-11-06T01:13:33;99050.34;;;11.91;100.00
7180;BME280;3631;42.152;24.756;2022-11-06T01:16:00;99067.19;;;12.03;100.00
7180;BME280;3631;42.152;24.756;2022-11-06T01:18:28;99066.28;;;12.04;100.00
7180;BME280;3631;42.152;24.756;2022-11-06T01:20:55;99064.06;;;11.95;100.00
7180;BME280;3631;42.152;24.756;2022-11-06T01:23:22;99069.97;;;11.98;100.00
7180;BME280;3631;42.152;24.756;2022-11-06T01:25:56;99067.41;;;11.97;100.00
7180;BME280;3631;42.152;24.756;2022-11-06T01:28:23;99064.31;;;11.89;100.00
7180;BME280;3631;42.152;24.756;2022-11-06T01:30:51;99064.69;;;11.80;100.00
7180;BME280;3631;42.152;24.756;2022-11-06T01:33:18;99070.34;;;11.89;100.00
7180;BME280;3631;42.152;24.756;2022-11-06T01:35:47;99070.16;;;11.94;100.00
7180;BME280;3631;42.152;24.756;2022-11-06T01:38:15;99048.47;;;11.73;100.00
7180;BME280;3631;42.152;24.756;2022-11-06T01:40:44;99061.75;;;11.87;100.00
7180;BME280;3631;42.152;24.756;2022-11-06T01:43:14;99057.78;;;11.79;100.00
7180;BME280;3631;42.152;24.756;2022-11-06T01:45:43;99057.22;;;11.71;100.00
7180;BME280;3631;42.152;24.756;2022-11-06T01:48:11;99035.63;;;11.48;100.00
7180;BME280;3631;42.152;24.756;2022-11-06T01:50:41;99044.44;;;11.44;100.00
7180;BME280;3631;42.152;24.756;2022-11-06T01:53:11;99060.50;;;11.54;100.00
7180;BME280;3631;42.152;24.756;2022-11-06T01:55:41;99067.59;;;11.50;100.00
7180;BME280;3631;42.152;24.756;2022-11-06T01:58:11;99068.50;;;11.49;100.00
7180;BME280;3631;42.152;24.756;2022-11-06T02:00:40;99071.31;;;11.43;100.00
7180;BME280;3631;42.152;24.756;2022-11-06T02:03:08;99069.13;;;11.33;100.00
7180;BME280;3631;42.152;24.756;2022-11-06T02:05:37;99071.69;;;11.34;100.00
7180;BME280;3631;42.152;24.756;2022-11-06T02:08:05;99050.53;;;11.21;100.00
7180;BME280;3631;42.152;24.756;2022-11-06T02:10:34;99060.44;;;11.34;100.00
7180;BME280;3631;42.152;24.756;2022-11-06T02:13:10;99057.91;;;11.32;100.00
7180;BME280;3631;42.152;24.756;2022-11-06T02:15:46;99051.00;;;11.31;100.00
7180;BME280;3631;42.152;24.756;2022-11-06T02:18:48;99054.94;;;11.41;100.00
7180;BME280;3631;42.152;24.756;2022-11-06T02:21:35;99050.63;;;11.40;100.00
7180;BME280;3631;42.152;24.756;2022-11-06T02:27:18;99062.03;;;11.38;100.00
7180;BME280;3631;42.152;24.756;2022-11-06T02:29:48;99067.38;;;11.33;100.00
7180;BME280;3631;42.152;24.756;2022-11-06T02:32:19;99068.34;;;11.31;100.00
7180;BME280;3631;42.152;24.756;2022-11-06T02:34:50;99060.81;;;11.24;100.00
7180;BME280;3631;42.152;24.756;2022-11-06T02:37:22;99057.91;;;11.32;100.00
7180;BME280;3631;42.152;24.756;2022-11-06T02:39:53;99054.50;;;11.30;100.00
7180;BME280;3631;42.152;24.756;2022-11-06T02:42:25;99063.34;;;11.26;100.00
7180;BME280;3631;42.152;24.756;2022-11-06T02:44:54;99064.25;;;11.25;100.00
7180;BME280;3631;42.152;24.756;2022-11-06T02:47:25;99065.03;;;11.27;100.00
7180;BME280;3631;42.152;24.756;2022-11-06T02:49:59;99053.06;;;11.23;100.00
7180;BME280;3631;42.152;24.756;2022-11-06T02:52:31;99063.50;;;11.21;100.00
7180;BME280;3631;42.152;24.756;2022-11-06T02:55:04;99060.00;;;11.22;100.00
7180;BME280;3631;42.152;24.756;2022-11-06T02:57:37;99066.06;;;11.23;100.00
7180;BME280;3631;42.152;24.756;2022-11-06T03:00:09;99071.56;;;11.37;100.00
7180;BME280;3631;42.152;24.756;2022-11-06T03:02:40;99073.22;;;11.40;100.00
7180;BME280;3631;42.152;24.756;2022-11-06T03:05:11;99063.78;;;11.37;100.00
7180;BME280;3631;42.152;24.756;2022-11-06T03:07:44;99068.06;;;11.38;100.00
7180;BME280;3631;42.152;24.756;2022-11-06T03:10:13;99060.44;;;11.34;100.00
7180;BME280;3631;42.152;24.756;2022-11-06T03:12:49;99053.31;;;11.17;100.00
7180;BME280;3631;42.152;24.756;2022-11-06T03:15:26;99065.50;;;11.15;100.00
7180;BME280;3631;42.152;24.756;2022-11-06T03:18:01;99070.56;;;11.18;100.00
7180;BME280;3631;42.152;24.756;2022-11-06T03:20:36;99067.81;;;11.22;100.00
7180;BME280;3631;42.152;24.756;2022-11-06T03:23:10;99072.78;;;11.28;100.00
7180;BME280;3631;42.152;24.756;2022-11-06T03:25:43;99063.56;;;11.20;100.00
7180;BME280;3631;42.152;24.756;2022-11-06T03:28:18;99070.47;;;11.21;100.00
7180;BME280;3631;42.152;24.756;2022-11-06T03:30:49;99062.44;;;11.27;100.00
7180;BME280;3631;42.152;24.756;2022-11-06T03:33:20;99070.84;;;11.34;100.00
7180;BME280;3631;42.152;24.756;2022-11-06T03:35:52;99066.44;;;11.36;100.00
7180;BME280;3631;42.152;24.756;2022-11-06T03:38:24;99070.66;;;11.38;100.00
7180;BME280;3631;42.152;24.756;2022-11-06T03:40:56;99068.06;;;11.38;100.00
7180;BME280;3631;42.152;24.756;2022-11-06T03:43:28;99049.47;;;11.27;100.00
7180;BME280;3631;42.152;24.756;2022-11-06T03:45:58;99070.88;;;11.32;100.00
7180;BME280;3631;42.152;24.756;2022-11-06T03:48:30;99077.00;;;11.31;100.00
7180;BME280;3631;42.152;24.756;2022-11-06T03:51:03;99070.84;;;11.34;100.00
7180;BME280;3631;42.152;24.756;2022-11-06T03:53:37;99018.97;;;11.09;100.00
7180;BME280;3631;42.152;24.756;2022-11-06T03:56:11;99053.75;;;11.28;100.00
7180;BME280;3631;42.152;24.756;2022-11-06T03:58:43;99056.63;;;11.42;100.00
7180;BME280;3631;42.152;24.756;2022-11-06T04:01:12;99068.19;;;11.35;100.00
7180;BME280;3631;42.152;24.756;2022-11-06T04:03:44;99054.19;;;11.39;100.00
7180;BME280;3631;42.152;24.756;2022-11-06T04:06:17;99052.22;;;11.44;100.00
7180;BME280;3631;42.152;24.756;2022-11-06T04:08:47;99065.16;;;11.46;100.00
7180;BME280;3631;42.152;24.756;2022-11-06T04:11:35;99078.22;;;11.44;100.00
7180;BME280;3631;42.152;24.756;2022-11-06T04:14:26;99075.72;;;11.41;100.00
7180;BME280;3631;42.152;24.756;2022-11-06T04:16:57;99087.09;;;11.39;100.00
7180;BME280;3631;42.152;24.756;2022-11-06T04:19:24;99075.91;;;11.37;100.00
7180;BME280;3631;42.152;24.756;2022-11-06T04:22:02;99076.19;;;11.29;100.00
7180;BME280;3631;42.152;24.756;2022-11-06T04:24:41;99071.00;;;11.29;100.00
7180;BME280;3631;42.152;24.756;2022-11-06T04:27:41;99075.97;;;11.35;100.00
7180;BME280;3631;42.152;24.756;2022-11-06T04:30:15;99082.88;;;11.36;100.00
7180;BME280;3631;42.152;24.756;2022-11-06T04:33:02;99082.31;;;11.28;100.00
7180;BME280;3631;42.152;24.756;2022-11-06T04:35:38;99080.75;;;11.24;100.00
7180;BME280;3631;42.152;24.756;2022-11-06T04:38:13;99075.66;;;11.21;100.00
7180;BME280;3631;42.152;24.756;2022-11-06T04:40:51;99073.97;;;11.20;100.00
7180;BME280;3631;42.152;24.756;2022-11-06T04:43:24;99068.91;;;11.17;100.00
7180;BME280;3631;42.152;24.756;2022-11-06T04:45:57;99066.16;;;11.20;100.00
7180;BME280;3631;42.152;24.756;2022-11-06T04:48:27;99069.66;;;11.19;100.00
7180;BME280;3631;42.152;24.756;2022-11-06T04:50:59;99076.00;;;11.12;100.00
7180;BME280;3631;42.152;24.756;2022-11-06T04:53:28;99079.50;;;11.11;100.00
7180;BME280;3631;42.152;24.756;2022-11-06T04:56:00;99084.03;;;11.06;100.00
7180;BME280;3631;42.152;24.756;2022-11-06T04:58:27;99089.25;;;11.06;100.00
7180;BME280;3631;42.152;24.756;2022-11-06T05:00:56;99100.84;;;11.19;100.00
7180;BME280;3631;42.152;24.756;2022-11-06T05:03:22;99092.28;;;11.17;100.00
7180;BME280;3631;42.152;24.756;2022-11-06T05:05:49;99090.75;;;11.11;100.00
7180;BME280;3631;42.152;24.756;2022-11-06T05:08:18;99087.34;;;11.09;100.00
7180;BME280;3631;42.152;24.756;2022-11-06T05:10:46;99080.50;;;11.07;100.00
7180;BME280;3631;42.152;24.756;2022-11-06T05:13:14;99080.66;;;11.04;100.00
7180;BME280;3631;42.152;24.756;2022-11-06T05:15:41;99089.91;;;11.11;100.00
7180;BME280;3631;42.152;24.756;2022-11-06T05:18:10;99085.19;;;11.20;100.00
7180;BME280;3631;42.152;24.756;2022-11-06T05:20:37;99092.81;;;11.25;100.00
7180;BME280;3631;42.152;24.756;2022-11-06T05:23:04;99112.50;;;11.31;100.00
7180;BME280;3631;42.152;24.756;2022-11-06T05:25:31;99113.25;;;11.34;100.00
7180;BME280;3631;42.152;24.756;2022-11-06T05:27:58;99110.66;;;11.34;100.00
7180;BME280;3631;42.152;24.756;2022-11-06T05:30:26;99117.38;;;11.40;100.00
7180;BME280;3631;42.152;24.756;2022-11-06T05:32:53;99111.94;;;11.46;100.00
7180;BME280;3631;42.152;24.756;2022-11-06T05:35:21;99119.63;;;11.49;100.00
7180;BME280;3631;42.152;24.756;2022-11-06T05:37:48;99114.28;;;11.52;100.00
7180;BME280;3631;42.152;24.756;2022-11-06T05:40:16;99088.53;;;11.46;100.00
7180;BME280;3631;42.152;24.756;2022-11-06T05:42:43;99110.50;;;11.60;100.00
7180;BME280;3631;42.152;24.756;2022-11-06T05:45:10;99100.81;;;11.64;100.00
7180;BME280;3631;42.152;24.756;2022-11-06T05:47:40;99114.94;;;11.80;100.00
7180;BME280;3631;42.152;24.756;2022-11-06T05:50:09;99125.28;;;11.82;100.00
7180;BME280;3631;42.152;24.756;2022-11-06T05:52:37;99133.72;;;11.87;100.00
7180;BME280;3631;42.152;24.756;2022-11-06T05:55:05;99137.13;;;11.89;100.00
7180;BME280;3631;42.152;24.756;2022-11-06T05:57:32;99145.72;;;11.91;100.00
7180;BME280;3631;42.152;24.756;2022-11-06T05:59:59;99146.38;;;11.96;100.00
7180;BME280;3631;42.152;24.756;2022-11-06T06:02:26;99147.09;;;11.99;100.00
7180;BME280;3631;42.152;24.756;2022-11-06T06:04:53;99151.06;;;12.08;100.00
7180;BME280;3631;42.152;24.756;2022-11-06T06:07:20;99150.03;;;12.12;100.00
7180;BME280;3631;42.152;24.756;2022-11-06T06:09:48;99156.59;;;12.21;100.00
7180;BME280;3631;42.152;24.756;2022-11-06T06:12:15;99164.25;;;12.25;100.00
7180;BME280;3631;42.152;24.756;2022-11-06T06:14:42;99171.72;;;12.33;100.00
7180;BME280;3631;42.152;24.756;2022-11-06T06:17:09;99175.06;;;12.36;100.00
7180;BME280;3631;42.152;24.756;2022-11-06T06:19:36;99179.09;;;12.44;100.00
7180;BME280;3631;42.152;24.756;2022-11-06T06:22:03;99180.09;;;12.41;100.00
7180;BME280;3631;42.152;24.756;2022-11-06T06:24:30;99183.13;;;12.51;100.00
7180;BME280;3631;42.152;24.756;2022-11-06T06:26:58;99188.69;;;12.63;100.00
7180;BME280;3631;42.152;24.756;2022-11-06T06:29:25;99194.41;;;12.71;100.00
7180;BME280;3631;42.152;24.756;2022-11-06T06:31:52;99190.81;;;12.74;100.00
7180;BME280;3631;42.152;24.756;2022-11-06T06:34:19;99200.91;;;12.82;100.00
7180;BME280;3631;42.152;24.756;2022-11-06T06:36:48;99193.81;;;12.85;100.00
7180;BME280;3631;42.152;24.756;2022-11-06T06:39:15;99199.66;;;12.90;100.00
7180;BME280;3631;42.152;24.756;2022-11-06T06:41:43;99208.06;;;12.97;100.00
7180;BME280;3631;42.152;24.756;2022-11-06T06:44:12;99202.59;;;13.03;100.00
7180;BME280;3631;42.152;24.756;2022-11-06T06:46:39;99202.59;;;13.03;100.00
7180;BME280;3631;42.152;24.756;2022-11-06T06:49:06;99204.72;;;13.14;100.00
7180;BME280;3631;42.152;24.756;2022-11-06T06:51:33;99206.53;;;13.12;100.00
7180;BME280;3631;42.152;24.756;2022-11-06T06:54:00;99213.22;;;13.19;100.00
7180;BME280;3631;42.152;24.756;2022-11-06T06:56:27;99215.34;;;13.29;100.00
7180;BME280;3631;42.152;24.756;2022-11-06T06:58:53;99217.47;;;13.40;100.00
7180;BME280;3631;42.152;24.756;2022-11-06T07:01:22;99222.81;;;13.56;100.00
7180;BME280;3631;42.152;24.756;2022-11-06T07:03:49;99226.78;;;13.64;100.00
7180;BME280;3631;42.152;24.756;2022-11-06T07:06:17;99231.00;;;13.67;100.00
7180;BME280;3631;42.152;24.756;2022-11-06T07:08:44;99232.69;;;13.68;100.00
7180;BME280;3631;42.152;24.756;2022-11-06T07:11:12;99235.81;;;13.76;100.00
7180;BME280;3631;42.152;24.756;2022-11-06T07:13:38;99242.38;;;13.85;100.00
7180;BME280;3631;42.152;24.756;2022-11-06T07:16:07;99238.84;;;13.86;100.00
7180;BME280;3631;42.152;24.756;2022-11-06T07:18:36;99245.31;;;13.96;100.00
7180;BME280;3631;42.152;24.756;2022-11-06T07:21:04;99234.44;;;14.05;100.00
7180;BME280;3631;42.152;24.756;2022-11-06T07:23:32;99239.34;;;14.11;100.00
7180;BME280;3631;42.152;24.756;2022-11-06T07:26:00;99227.03;;;14.14;100.00
7180;BME280;3631;42.152;24.756;2022-11-06T07:28:27;99248.16;;;14.27;100.00
7180;BME280;3631;42.152;24.756;2022-11-06T07:30:57;99240.81;;;14.35;100.00
7180;BME280;3631;42.152;24.756;2022-11-06T07:33:24;99248.38;;;14.59;100.00
7180;BME280;3631;42.152;24.756;2022-11-06T07:35:52;99245.31;;;14.68;100.00
7180;BME280;3631;42.152;24.756;2022-11-06T07:38:19;99246.78;;;14.73;100.00
7180;BME280;3631;42.152;24.756;2022-11-06T07:40:46;99243.78;;;14.81;100.00
7180;BME280;3631;42.152;24.756;2022-11-06T07:43:13;99240.66;;;14.74;100.00
7180;BME280;3631;42.152;24.756;2022-11-06T07:45:40;99242.69;;;14.68;100.00
7180;BME280;3631;42.152;24.756;2022-11-06T07:48:07;99251.16;;;14.73;100.00
7180;BME280;3631;42.152;24.756;2022-11-06T07:50:34;99245.09;;;14.72;100.00
7180;BME280;3631;42.152;24.756;2022-11-06T07:53:03;99243.78;;;14.81;100.00
7180;BME280;3631;42.152;24.756;2022-11-06T07:55:30;99246.03;;;14.88;100.00
7180;BME280;3631;42.152;24.756;2022-11-06T07:57:57;99255.31;;;14.94;100.00
7180;BME280;3631;42.152;24.756;2022-11-06T08:00:24;99257.00;;;14.95;100.00
7180;BME280;3631;42.152;24.756;2022-11-06T08:02:51;99257.34;;;14.89;100.00
7180;BME280;3631;42.152;24.756;2022-11-06T08:05:18;99261.72;;;14.88;100.00
7180;BME280;3631;42.152;24.756;2022-11-06T08:07:45;99267.16;;;14.84;100.00
7180;BME280;3631;42.152;24.756;2022-11-06T08:10:13;99276.47;;;14.89;100.00
7180;BME280;3631;42.152;24.756;2022-11-06T08:12:40;99275.84;;;14.84;100.00
7180;BME280;3631;42.152;24.756;2022-11-06T08:15:08;99270.41;;;14.89;100.00
7180;BME280;3631;42.152;24.756;2022-11-06T08:17:35;99277.59;;;15.01;100.00
7180;BME280;3631;42.152;24.756;2022-11-06T08:20:02;99284.44;;;15.04;100.00
7180;BME280;3631;42.152;24.756;2022-11-06T08:22:29;99290.97;;;15.12;100.00
7180;BME280;3631;42.152;24.756;2022-11-06T08:24:56;99297.16;;;15.11;100.00
7180;BME280;3631;42.152;24.756;2022-11-06T08:27:24;99296.50;;;15.06;100.00
7180;BME280;3631;42.152;24.756;2022-11-06T08:29:53;99300.97;;;15.04;100.00
7180;BME280;3631;42.152;24.756;2022-11-06T08:32:20;99303.06;;;14.98;100.00
7180;BME280;3631;42.152;24.756;2022-11-06T08:34:47;99307.97;;;15.04;100.00
7180;BME280;3631;42.152;24.756;2022-11-06T08:37:13;99315.34;;;15.13;100.00
7180;BME280;3631;42.152;24.756;2022-11-06T08:39:40;99330.28;;;15.11;100.00
7180;BME280;3631;42.152;24.756;2022-11-06T08:42:08;99332.72;;;14.97;100.00
7180;BME280;3631;42.152;24.756;2022-11-06T08:44:37;99332.09;;;14.92;100.00
7180;BME280;3631;42.152;24.756;2022-11-06T08:47:07;99336.72;;;15.04;100.00
7180;BME280;3631;42.152;24.756;2022-11-06T08:49:33;99333.09;;;15.06;100.00
7180;BME280;3631;42.152;24.756;2022-11-06T08:52:00;99337.94;;;15.14;100.00
7180;BME280;3631;42.152;24.756;2022-11-06T08:54:27;99333.88;;;15.08;100.00
7180;BME280;3631;42.152;24.756;2022-11-06T08:56:56;99331.56;;;15.02;100.00
7180;BME280;3631;42.152;24.756;2022-11-06T08:59:23;99316.91;;;15.00;100.00
7180;BME280;3631;42.152;24.756;2022-11-06T09:01:51;99316.47;;;14.90;100.00
7180;BME280;3631;42.152;24.756;2022-11-06T09:04:18;99295.06;;;14.66;100.00
7180;BME280;3631;42.152;24.756;2022-11-06T09:06:45;99304.72;;;14.64;100.00
7180;BME280;3631;42.152;24.756;2022-11-06T09:09:12;99302.25;;;14.61;100.00
7180;BME280;3631;42.152;24.756;2022-11-06T09:11:39;99321.53;;;14.59;100.00
7180;BME280;3631;42.152;24.756;2022-11-06T09:14:05;99318.97;;;14.57;100.00
7180;BME280;3631;42.152;24.756;2022-11-06T09:16:32;99278.81;;;14.42;100.00
7180;BME280;3631;42.152;24.756;2022-11-06T09:19:01;99309.88;;;14.66;100.00
7180;BME280;3631;42.152;24.756;2022-11-06T09:21:28;99320.66;;;14.77;100.00
7180;BME280;3631;42.152;24.756;2022-11-06T09:23:55;99320.91;;;14.89;100.00
7180;BME280;3631;42.152;24.756;2022-11-06T09:26:21;99332.78;;;14.95;100.00
7180;BME280;3631;42.152;24.756;2022-11-06T09:28:48;99310.97;;;14.96;100.00
7180;BME280;3631;42.152;24.756;2022-11-06T09:31:15;99300.06;;;15.05;100.00
7180;BME280;3631;42.152;24.756;2022-11-06T09:33:42;99290.66;;;15.01;100.00
7180;BME280;3631;42.152;24.756;2022-11-06T09:36:10;99268.84;;;15.02;100.00
7180;BME280;3631;42.152;24.756;2022-11-06T09:38:37;99294.38;;;14.97;100.00
7180;BME280;3631;42.152;24.756;2022-11-06T09:41:04;99300.06;;;15.05;100.00
7180;BME280;3631;42.152;24.756;2022-11-06T09:43:51;99274.53;;;15.10;100.00
7180;BME280;3631;42.152;24.756;2022-11-06T09:46:22;99267.91;;;15.03;100.00
7180;BME280;3631;42.152;24.756;2022-11-06T09:48:54;99253.63;;;14.93;100.00
7180;BME280;3631;42.152;24.756;2022-11-06T09:51:30;99281.44;;;14.94;100.00
7180;BME280;3631;42.152;24.756;2022-11-06T09:54:01;99282.66;;;15.04;100.00
7180;BME280;3631;42.152;24.756;2022-11-06T09:56:33;99296.50;;;15.06;100.00
7180;BME280;3631;42.152;24.756;2022-11-06T09:59:03;99300.50;;;15.13;100.00
7180;BME280;3631;42.152;24.756;2022-11-06T10:01:39;99310.22;;;15.11;100.00
7180;BME280;3631;42.152;24.756;2022-11-06T10:04:17;99305.59;;;14.99;100.00
7180;BME280;3631;42.152;24.756;2022-11-06T10:06:48;99310.34;;;14.91;100.00
7180;BME280;3631;42.152;24.756;2022-11-06T10:09:15;99300.28;;;14.83;100.00
7180;BME280;3631;42.152;24.756;2022-11-06T10:11:57;99301.44;;;14.78;100.00
7180;BME280;3631;42.152;24.756;2022-11-06T10:14:45;99305.66;;;14.80;100.00
7180;BME280;3631;42.152;24.756;2022-11-06T10:17:25;99300.72;;;14.74;100.00
7180;BME280;3631;42.152;24.756;2022-11-06T10:19:56;99296.66;;;14.69;100.00
7180;BME280;3631;42.152;24.756;2022-11-06T10:22:35;99293.03;;;14.71;100.00
7180;BME280;3631;42.152;24.756;2022-11-06T10:25:16;99286.50;;;14.63;100.00
7180;BME280;3631;42.152;24.756;2022-11-06T10:27:54;99292.50;;;14.65;100.00
7180;BME280;3631;42.152;24.756;2022-11-06T10:30:31;99286.13;;;14.70;100.00
7180;BME280;3631;42.152;24.756;2022-11-06T10:33:22;99285.06;;;14.74;100.00
7180;BME280;3631;42.152;24.756;2022-11-06T10:35:56;99289.59;;;14.88;100.00
7180;BME280;3631;42.152;24.756;2022-11-06T10:38:28;99285.13;;;14.90;100.00
7180;BME280;3631;42.152;24.756;2022-11-06T10:40:59;99288.28;;;14.97;100.00
7180;BME280;3631;42.152;24.756;2022-11-06T10:43:31;99286.91;;;15.07;100.00
7180;BME280;3631;42.152;24.756;2022-11-06T10:46:05;99288.44;;;15.11;100.00
7180;BME280;3631;42.152;24.756;2022-11-06T10:48:39;99286.06;;;15.06;100.00
7180;BME280;3631;42.152;24.756;2022-11-06T10:51:26;99296.06;;;14.98;100.00
7180;BME280;3631;42.152;24.756;2022-11-06T10:54:08;99289.91;;;14.99;100.00
7180;BME280;3631;42.152;24.756;2022-11-06T10:56:53;99279.91;;;15.07;100.00
7180;BME280;3631;42.152;24.756;2022-11-06T10:59:22;99290.38;;;15.07;100.00
7180;BME280;3631;42.152;24.756;2022-11-06T11:01:49;99281.59;;;15.08;100.00
7180;BME280;3631;42.152;24.756;2022-11-06T11:04:16;99278.44;;;15.02;100.00
7180;BME280;3631;42.152;24.756;2022-11-06T11:06:43;99272.06;;;14.90;100.00
7180;BME280;3631;42.152;24.756;2022-11-06T11:09:26;99276.38;;;14.91;100.00
7180;BME280;3631;42.152;24.756;2022-11-06T11:11:53;99270.53;;;15.03;100.00
7180;BME280;3631;42.152;24.756;2022-11-06T11:14:22;99269.28;;;15.27;100.00
7180;BME280;3631;42.152;24.756;2022-11-06T11:16:50;99270.75;;;15.49;100.00
7180;BME280;3631;42.152;24.756;2022-11-06T11:19:26;99270.91;;;15.63;100.00
7180;BME280;3631;42.152;24.756;2022-11-06T11:21:59;99269.00;;;15.67;100.00
7180;BME280;3631;42.152;24.756;2022-11-06T11:24:28;99266.97;;;15.72;100.00
7180;BME280;3631;42.152;24.756;2022-11-06T11:26:58;99264.25;;;15.73;100.00
7180;BME280;3631;42.152;24.756;2022-11-06T11:29:29;99244.59;;;15.82;100.00
7180;BME280;3631;42.152;24.756;2022-11-06T11:31:58;99254.16;;;15.98;100.00
7180;BME280;3631;42.152;24.756;2022-11-06T11:34:28;99253.81;;;16.05;100.00
7180;BME280;3631;42.152;24.756;2022-11-06T11:36:57;99251.19;;;16.05;100.00
7180;BME280;3631;42.152;24.756;2022-11-06T11:39:29;99251.09;;;16.22;100.00
7180;BME280;3631;42.152;24.756;2022-11-06T11:42:25;99255.56;;;16.36;100.00
7180;BME280;3631;42.152;24.756;2022-11-06T11:45:10;99263.84;;;16.44;100.00
7180;BME280;3631;42.152;24.756;2022-11-06T11:47:39;99268.63;;;16.51;100.00
7180;BME280;3631;42.152;24.756;2022-11-06T11:50:33;99254.44;;;16.55;100.00
7180;BME280;3631;42.152;24.756;2022-11-06T11:53:04;99262.22;;;16.57;100.00
7180;BME280;3631;42.152;24.756;2022-11-06T11:55:40;99257.72;;;16.59;100.00
7180;BME280;3631;42.152;24.756;2022-11-06T11:58:18;99244.81;;;16.56;100.00
7180;BME280;3631;42.152;24.756;2022-11-06T12:00:53;99253.78;;;16.67;100.00
7180;BME280;3631;42.152;24.756;2022-11-06T12:03:21;99256.94;;;16.73;100.00
7180;BME280;3631;42.152;24.756;2022-11-06T12:05:51;99251.91;;;16.69;100.00
7180;BME280;3631;42.152;24.756;2022-11-06T12:08:22;99255.84;;;16.77;100.00
7180;BME280;3631;42.152;24.756;2022-11-06T12:10:51;99263.03;;;16.73;100.00
7180;BME280;3631;42.152;24.756;2022-11-06T12:13:20;99265.56;;;16.75;100.00
7180;BME280;3631;42.152;24.756;2022-11-06T12:15:52;99267.38;;;16.58;100.00
7180;BME280;3631;42.152;24.756;2022-11-06T12:18:22;99270.25;;;16.38;100.00
7180;BME280;3631;42.152;24.756;2022-11-06T12:20:56;99272.72;;;16.25;100.00
7180;BME280;3631;42.152;24.756;2022-11-06T12:23:27;99266.06;;;16.04;100.00
7180;BME280;3631;42.152;24.756;2022-11-06T12:26:06;99257.34;;;16.04;100.00
7180;BME280;3631;42.152;24.756;2022-11-06T12:28:38;99250.34;;;16.04;100.00
7180;BME280;3631;42.152;24.756;2022-11-06T12:31:16;99254.25;;;15.97;100.00
7180;BME280;3631;42.152;24.756;2022-11-06T12:33:46;99247.75;;;15.88;100.00
7180;BME280;3631;42.152;24.756;2022-11-06T12:36:17;99247.38;;;15.94;100.00
7180;BME280;3631;42.152;24.756;2022-11-06T12:38:47;99229.59;;;15.85;100.00
7180;BME280;3631;42.152;24.756;2022-11-06T12:41:24;99240.53;;;15.92;100.00
7180;BME280;3631;42.152;24.756;2022-11-06T12:43:52;99243.75;;;15.81;100.00
7180;BME280;3631;42.152;24.756;2022-11-06T12:46:39;99231.50;;;15.66;100.00
7180;BME280;3631;42.152;24.756;2022-11-06T12:49:45;99238.03;;;15.75;100.00
7180;BME280;3631;42.152;24.756;2022-11-06T12:52:26;99235.63;;;15.70;100.00
7180;BME280;3631;42.152;24.756;2022-11-06T12:55:09;99241.91;;;15.68;100.00
7180;BME280;3631;42.152;24.756;2022-11-06T12:57:53;99228.06;;;15.66;100.00
7180;BME280;3631;42.152;24.756;2022-11-06T13:00:28;99234.22;;;15.65;100.00
7180;BME280;3631;42.152;24.756;2022-11-06T13:03:21;99231.44;;;15.68;100.00
7180;BME280;3631;42.152;24.756;2022-11-06T13:05:59;99222.22;;;15.60;100.00
7180;BME280;3631;42.152;24.756;2022-11-06T13:08:33;99236.75;;;15.66;100.00
7180;BME280;3631;42.152;24.756;2022-11-06T13:11:16;99233.72;;;15.74;100.00
7180;BME280;3631;42.152;24.756;2022-11-06T13:14:05;99249.50;;;15.72;100.00
7180;BME280;3631;42.152;24.756;2022-11-06T13:16:38;99231.75;;;15.61;100.00
7180;BME280;3631;42.152;24.756;2022-11-06T13:19:12;99238.53;;;15.66;100.00
7180;BME280;3631;42.152;24.756;2022-11-06T13:24:44;99242.81;;;15.67;100.00
7180;BME280;3631;42.152;24.756;2022-11-06T13:27:18;99239.19;;;15.69;100.00